createdAt,value
2019-02-10T00:00:11.822Z,10.20
2019-02-10T00:01:14.891Z,10.10
2019-02-10T00:02:16.093Z,10.10
2019-02-10T00:03:17.110Z,10.10
2019-02-10T00:04:18.119Z,10.10
2019-02-10T00:05:19.148Z,10.10
2019-02-10T00:06:24.732Z,10.10
2019-02-10T00:07:23.120Z,10.10
2019-02-10T00:08:24.123Z,10.10
2019-02-10T00:09:25.141Z,10.10
2019-02-10T00:10:26.248Z,10.10
2019-02-10T00:11:27.261Z,10.10
2019-02-10T00:12:28.275Z,10.10
2019-02-10T00:13:31.904Z,10.10
2019-02-10T00:14:32.917Z,10.10
2019-02-10T00:15:33.928Z,10.10
2019-02-10T00:16:34.937Z,10.10
2019-02-10T00:17:35.966Z,10.10
2019-02-10T00:18:36.984Z,10.10
2019-02-10T00:19:38.000Z,10.10
2019-02-10T00:20:39.011Z,10.00
2019-02-10T00:21:40.120Z,10.10
2019-02-10T00:22:41.140Z,10.10
2019-02-10T00:23:42.154Z,10.10
2019-02-10T00:24:43.191Z,10.10
2019-02-10T00:25:44.199Z,10.10
2019-02-10T00:26:45.216Z,10.10
2019-02-10T00:27:46.331Z,10.10
2019-02-10T00:28:47.357Z,10.10
2019-02-10T00:29:48.352Z,10.10
2019-02-10T00:30:49.359Z,10.20
2019-02-10T00:31:50.372Z,10.20
2019-02-10T00:32:51.401Z,10.20
2019-02-10T00:33:52.528Z,10.20
2019-02-10T00:34:53.548Z,10.20
2019-02-10T00:35:54.887Z,10.20
2019-02-10T00:36:55.893Z,10.20
2019-02-10T00:37:56.912Z,10.20
2019-02-10T00:38:57.927Z,10.20
2019-02-10T00:39:58.948Z,10.30
2019-02-10T00:40:59.956Z,10.30
2019-02-10T00:42:01.268Z,10.30
2019-02-10T00:43:02.291Z,10.30
2019-02-10T00:44:03.303Z,10.30
2019-02-10T00:45:04.318Z,10.30
2019-02-10T00:46:05.328Z,10.30
2019-02-10T00:47:06.352Z,10.30
2019-02-10T00:48:07.351Z,10.30
2019-02-10T00:49:08.368Z,10.40
2019-02-10T00:50:09.383Z,10.30
2019-02-10T00:51:10.400Z,10.30
2019-02-10T00:52:11.409Z,10.30
2019-02-10T00:53:12.432Z,10.30
2019-02-10T00:54:13.448Z,10.30
2019-02-10T00:55:14.464Z,10.30
2019-02-10T00:56:15.471Z,10.30
2019-02-10T00:57:16.487Z,10.30
2019-02-10T00:58:17.674Z,10.30
2019-02-10T00:59:18.758Z,10.30
2019-02-10T01:00:19.760Z,10.30
2019-02-10T01:01:20.778Z,10.30
2019-02-10T01:02:21.801Z,10.30
2019-02-10T01:03:22.847Z,10.30
2019-02-10T01:04:23.856Z,10.40
2019-02-10T01:05:24.872Z,10.30
2019-02-10T01:06:25.885Z,10.30
2019-02-10T01:07:26.890Z,10.30
2019-02-10T01:08:27.921Z,10.30
2019-02-10T01:09:28.932Z,10.30
2019-02-10T01:10:29.944Z,10.30
2019-02-10T01:11:30.960Z,10.30
2019-02-10T01:12:31.984Z,10.30
2019-02-10T01:13:33.014Z,10.20
2019-02-10T01:14:34.024Z,10.20
2019-02-10T01:15:35.030Z,10.20
2019-02-10T01:16:36.040Z,10.20
2019-02-10T01:17:37.043Z,10.20
2019-02-10T01:18:41.883Z,10.20
2019-02-10T01:19:42.885Z,10.20
2019-02-10T01:20:43.888Z,10.20
2019-02-10T01:21:44.900Z,10.20
2019-02-10T01:22:45.908Z,10.20
2019-02-10T01:23:46.938Z,10.20
2019-02-10T01:24:47.980Z,10.20
2019-02-10T01:25:48.988Z,10.20
2019-02-10T01:26:50.000Z,10.20
2019-02-10T01:27:51.008Z,10.20
2019-02-10T01:28:52.056Z,10.20
2019-02-10T01:29:53.067Z,10.10
2019-02-10T01:30:54.092Z,10.10
2019-02-10T01:31:55.104Z,10.10
2019-02-10T01:32:56.128Z,10.10
2019-02-10T01:33:57.148Z,10.10
2019-02-10T01:34:58.160Z,10.10
2019-02-10T01:35:59.175Z,10.00
2019-02-10T01:37:00.195Z,9.90
2019-02-10T01:38:01.192Z,9.90
2019-02-10T01:39:06.116Z,9.90
2019-02-10T01:40:08.931Z,9.90
2019-02-10T01:41:09.936Z,9.90
2019-02-10T01:42:10.946Z,9.90
2019-02-10T01:43:11.963Z,9.90
2019-02-10T01:44:12.976Z,9.90
2019-02-10T01:45:13.995Z,9.90
2019-02-10T01:46:15.019Z,9.90
2019-02-10T01:47:16.031Z,9.80
2019-02-10T01:48:17.148Z,9.90
2019-02-10T01:49:18.404Z,9.90
2019-02-10T01:50:19.424Z,9.90
2019-02-10T01:51:20.442Z,9.90
2019-02-10T01:52:21.453Z,9.80
2019-02-10T01:53:22.482Z,9.80
2019-02-10T01:54:23.499Z,9.80
2019-02-10T01:55:24.508Z,9.80
2019-02-10T01:56:25.530Z,9.70
2019-02-10T01:57:26.541Z,9.70
2019-02-10T01:58:27.552Z,9.70
2019-02-10T01:59:28.572Z,9.70
2019-02-10T02:00:29.584Z,9.70
2019-02-10T02:01:30.592Z,9.70
2019-02-10T02:02:31.614Z,9.70
2019-02-10T02:03:32.632Z,9.80
2019-02-10T02:04:33.651Z,9.80
2019-02-10T02:05:34.671Z,9.70
2019-02-10T02:06:35.679Z,9.70
2019-02-10T02:07:36.700Z,9.70
2019-02-10T02:08:37.704Z,9.70
2019-02-10T02:09:38.730Z,9.80
2019-02-10T02:10:39.740Z,9.80
2019-02-10T02:11:40.755Z,9.80
2019-02-10T02:12:41.766Z,9.80
2019-02-10T02:13:42.783Z,9.80
2019-02-10T02:14:43.800Z,9.80
2019-02-10T02:15:44.809Z,9.80
2019-02-10T02:16:45.820Z,9.70
2019-02-10T02:17:46.838Z,9.70
2019-02-10T02:18:47.870Z,9.70
2019-02-10T02:19:49.184Z,9.70
2019-02-10T02:20:50.204Z,9.70
2019-02-10T02:21:51.207Z,9.70
2019-02-10T02:22:52.230Z,9.70
2019-02-10T02:23:53.235Z,9.70
2019-02-10T02:24:54.263Z,9.70
2019-02-10T02:25:55.271Z,9.70
2019-02-10T02:26:56.289Z,9.70
2019-02-10T02:27:57.299Z,9.80
2019-02-10T02:28:58.311Z,9.80
2019-02-10T02:29:59.658Z,9.80
2019-02-10T02:31:00.674Z,9.80
2019-02-10T02:32:01.764Z,9.80
2019-02-10T02:33:02.772Z,9.80
2019-02-10T02:34:03.794Z,9.80
2019-02-10T02:35:04.810Z,9.90
2019-02-10T02:36:05.820Z,9.90
2019-02-10T02:37:08.237Z,9.90
2019-02-10T02:38:09.545Z,9.90
2019-02-10T02:39:10.555Z,9.90
2019-02-10T02:40:11.577Z,9.90
2019-02-10T02:41:12.605Z,9.90
2019-02-10T02:42:13.619Z,9.90
2019-02-10T02:43:14.630Z,9.90
2019-02-10T02:44:15.643Z,9.90
2019-02-10T02:45:16.674Z,9.90
2019-02-10T02:46:17.685Z,9.90
2019-02-10T02:47:18.700Z,9.90
2019-02-10T02:48:19.761Z,9.90
2019-02-10T02:49:20.772Z,10.00
2019-02-10T02:50:21.787Z,10.00
2019-02-10T02:51:22.839Z,10.00
2019-02-10T02:52:23.851Z,10.00
2019-02-10T02:53:24.866Z,10.00
2019-02-10T02:54:25.876Z,10.00
2019-02-10T02:55:26.928Z,10.00
2019-02-10T02:56:27.940Z,10.00
2019-02-10T02:57:28.956Z,9.90
2019-02-10T02:58:29.985Z,10.00
2019-02-10T02:59:31.084Z,9.90
2019-02-10T03:00:32.107Z,9.90
2019-02-10T03:01:33.117Z,9.90
2019-02-10T03:02:34.129Z,9.90
2019-02-10T03:03:35.152Z,9.90
2019-02-10T03:04:36.419Z,9.90
2019-02-10T03:05:37.445Z,9.90
2019-02-10T03:06:44.600Z,10.00
2019-02-10T03:07:45.621Z,10.00
2019-02-10T03:08:46.627Z,10.00
2019-02-10T03:09:47.650Z,10.00
2019-02-10T03:10:48.671Z,10.10
2019-02-10T03:11:49.680Z,10.10
2019-02-10T03:12:50.688Z,10.10
2019-02-10T03:13:51.722Z,10.10
2019-02-10T03:14:52.751Z,10.10
2019-02-10T03:15:53.852Z,10.10
2019-02-10T03:16:54.864Z,10.10
2019-02-10T03:17:55.890Z,10.10
2019-02-10T03:18:56.902Z,10.10
2019-02-10T03:19:57.907Z,10.10
2019-02-10T03:20:58.935Z,10.10
2019-02-10T03:21:59.957Z,10.10
2019-02-10T03:23:00.965Z,10.10
2019-02-10T03:24:02.075Z,10.10
2019-02-10T03:25:05.296Z,10.10
2019-02-10T03:26:06.308Z,10.10
2019-02-10T03:27:07.595Z,10.10
2019-02-10T03:28:08.605Z,10.20
2019-02-10T03:29:09.861Z,10.20
2019-02-10T03:30:10.972Z,10.20
2019-02-10T03:31:11.994Z,10.20
2019-02-10T03:32:13.009Z,10.20
2019-02-10T03:33:14.042Z,10.20
2019-02-10T03:34:15.044Z,10.20
2019-02-10T03:35:16.056Z,10.30
2019-02-10T03:36:17.082Z,10.30
2019-02-10T03:37:26.648Z,10.30
2019-02-10T03:38:21.052Z,10.20
2019-02-10T03:39:22.213Z,10.30
2019-02-10T03:40:23.228Z,10.30
2019-02-10T03:41:24.245Z,10.30
2019-02-10T03:42:25.460Z,10.30
2019-02-10T03:43:26.481Z,10.30
2019-02-10T03:44:27.492Z,10.30
2019-02-10T03:45:28.534Z,10.30
2019-02-10T03:46:29.645Z,10.20
2019-02-10T03:47:30.679Z,10.20
2019-02-10T03:48:31.680Z,10.20
2019-02-10T03:49:32.692Z,10.20
2019-02-10T03:50:33.704Z,10.20
2019-02-10T03:51:34.746Z,10.20
2019-02-10T03:52:35.750Z,10.20
2019-02-10T03:53:36.760Z,10.20
2019-02-10T03:54:37.860Z,10.10
2019-02-10T03:55:38.972Z,10.10
2019-02-10T03:56:40.004Z,10.10
2019-02-10T03:57:41.052Z,10.10
2019-02-10T03:58:42.066Z,10.10
2019-02-10T03:59:43.075Z,10.10
2019-02-10T04:00:44.138Z,10.10
2019-02-10T04:01:45.221Z,10.20
2019-02-10T04:02:46.235Z,10.10
2019-02-10T04:03:47.245Z,10.10
2019-02-10T04:04:48.260Z,10.10
2019-02-10T04:05:49.293Z,10.00
2019-02-10T04:06:50.300Z,10.00
2019-02-10T04:07:51.319Z,10.00
2019-02-10T04:08:52.336Z,10.00
2019-02-10T04:09:53.352Z,10.00
2019-02-10T04:10:54.386Z,10.00
2019-02-10T04:11:55.389Z,10.00
2019-02-10T04:12:56.395Z,9.90
2019-02-10T04:13:57.415Z,9.90
2019-02-10T04:14:58.705Z,9.90
2019-02-10T04:15:59.734Z,9.90
2019-02-10T04:17:00.739Z,9.90
2019-02-10T04:18:02.092Z,9.90
2019-02-10T04:19:03.111Z,9.90
2019-02-10T04:20:05.720Z,9.90
2019-02-10T04:21:06.738Z,9.90
2019-02-10T04:22:07.811Z,9.90
2019-02-10T04:23:08.929Z,9.90
2019-02-10T04:24:09.937Z,10.00
2019-02-10T04:25:10.940Z,10.00
2019-02-10T04:26:11.971Z,9.90
2019-02-10T04:27:12.989Z,9.90
2019-02-10T04:28:13.996Z,10.00
2019-02-10T04:29:15.012Z,10.00
2019-02-10T04:30:16.028Z,10.10
2019-02-10T04:31:17.043Z,10.10
2019-02-10T04:32:18.052Z,10.10
2019-02-10T04:33:19.077Z,10.20
2019-02-10T04:34:20.112Z,10.20
2019-02-10T04:35:21.457Z,10.20
2019-02-10T04:36:22.484Z,10.20
2019-02-10T04:37:23.827Z,10.20
2019-02-10T04:38:24.837Z,10.20
2019-02-10T04:39:25.925Z,10.20
2019-02-10T04:40:26.944Z,10.20
2019-02-10T04:41:27.951Z,10.20
2019-02-10T04:42:28.960Z,10.30
2019-02-10T04:43:30.425Z,10.30
2019-02-10T04:44:31.441Z,10.30
2019-02-10T04:45:32.448Z,10.30
2019-02-10T04:46:33.473Z,10.20
2019-02-10T04:47:34.488Z,10.20
2019-02-10T04:48:35.508Z,10.20
2019-02-10T04:49:36.521Z,10.20
2019-02-10T04:50:37.543Z,10.20
2019-02-10T04:51:38.554Z,10.10
2019-02-10T04:52:39.571Z,10.10
2019-02-10T04:53:40.587Z,10.10
2019-02-10T04:54:41.595Z,10.10
2019-02-10T04:55:42.610Z,10.10
2019-02-10T04:56:43.628Z,10.10
2019-02-10T04:57:44.645Z,10.10
2019-02-10T04:58:45.655Z,10.20
2019-02-10T04:59:46.682Z,10.20
2019-02-10T05:00:47.689Z,10.20
2019-02-10T05:01:48.727Z,10.20
2019-02-10T05:02:49.781Z,10.20
2019-02-10T05:03:50.811Z,10.20
2019-02-10T05:04:51.911Z,10.20
2019-02-10T05:05:52.928Z,10.20
2019-02-10T05:06:53.957Z,10.20
2019-02-10T05:07:54.967Z,10.20
2019-02-10T05:08:56.000Z,10.20
2019-02-10T05:09:57.011Z,10.20
2019-02-10T05:10:58.036Z,10.20
2019-02-10T05:11:59.077Z,10.30
2019-02-10T05:13:00.082Z,10.30
2019-02-10T05:14:01.099Z,10.30
2019-02-10T05:15:03.304Z,10.30
2019-02-10T05:16:04.318Z,10.30
2019-02-10T05:17:05.349Z,10.40
2019-02-10T05:18:06.371Z,10.40
2019-02-10T05:19:07.380Z,10.40
2019-02-10T05:20:08.397Z,10.50
2019-02-10T05:21:09.405Z,10.50
2019-02-10T05:22:10.419Z,10.50
2019-02-10T05:23:11.745Z,10.50
2019-02-10T05:24:12.756Z,10.60
2019-02-10T05:25:13.806Z,10.60
2019-02-10T05:26:14.932Z,10.60
2019-02-10T05:27:16.004Z,10.60
2019-02-10T05:28:17.052Z,10.60
2019-02-10T05:29:18.336Z,10.60
2019-02-10T05:30:19.377Z,10.50
2019-02-10T05:31:20.389Z,10.50
2019-02-10T05:32:21.420Z,10.50
2019-02-10T05:33:22.426Z,10.60
2019-02-10T05:34:23.431Z,10.50
2019-02-10T05:35:24.444Z,10.50
2019-02-10T05:36:25.456Z,10.60
2019-02-10T05:37:26.476Z,10.60
2019-02-10T05:38:27.488Z,10.60
2019-02-10T05:39:28.500Z,10.60
2019-02-10T05:40:29.511Z,10.60
2019-02-10T05:41:30.647Z,10.60
2019-02-10T05:42:31.675Z,10.60
2019-02-10T05:43:32.788Z,10.60
2019-02-10T05:44:33.803Z,10.60
2019-02-10T05:45:34.809Z,10.60
2019-02-10T05:46:35.818Z,10.60
2019-02-10T05:47:38.476Z,10.60
2019-02-10T05:48:39.488Z,10.60
2019-02-10T05:49:40.498Z,10.60
2019-02-10T05:50:41.512Z,10.60
2019-02-10T05:51:42.534Z,10.60
2019-02-10T05:52:43.541Z,10.60
2019-02-10T05:53:44.556Z,10.60
2019-02-10T05:54:45.567Z,10.50
2019-02-10T05:55:46.583Z,10.50
2019-02-10T05:56:47.593Z,10.40
2019-02-10T05:57:48.618Z,10.40
2019-02-10T05:58:49.640Z,10.40
2019-02-10T05:59:50.660Z,10.30
2019-02-10T06:00:51.668Z,10.40
2019-02-10T06:02:08.211Z,10.40
2019-02-10T06:03:09.245Z,10.40
2019-02-10T06:04:10.557Z,10.40
2019-02-10T06:05:19.922Z,10.40
2019-02-10T06:06:21.164Z,10.40
2019-02-10T06:07:22.175Z,10.30
2019-02-10T06:08:23.195Z,10.30
2019-02-10T06:09:24.208Z,10.30
2019-02-10T06:10:25.224Z,10.40
2019-02-10T06:11:26.232Z,10.40
2019-02-10T06:12:27.263Z,10.40
2019-02-10T06:13:28.284Z,10.40
2019-02-10T06:14:29.300Z,10.40
2019-02-10T06:15:30.304Z,10.40
2019-02-10T06:16:31.323Z,10.30
2019-02-10T06:17:32.344Z,10.30
2019-02-10T06:18:33.395Z,10.30
2019-02-10T06:19:34.412Z,10.30
2019-02-10T06:20:35.428Z,10.30
2019-02-10T06:21:36.436Z,10.30
2019-02-10T06:22:37.453Z,10.30
2019-02-10T06:23:38.473Z,10.30
2019-02-10T06:24:39.508Z,10.30
2019-02-10T06:25:40.532Z,10.30
2019-02-10T06:26:41.542Z,10.40
2019-02-10T06:27:42.545Z,10.40
2019-02-10T06:28:43.916Z,10.40
2019-02-10T06:29:44.928Z,10.40
2019-02-10T06:30:45.939Z,10.40
2019-02-10T06:31:46.947Z,10.40
2019-02-10T06:32:47.969Z,10.40
2019-02-10T06:33:49.001Z,10.40
2019-02-10T06:34:50.005Z,10.40
2019-02-10T06:35:51.021Z,10.40
2019-02-10T06:36:52.028Z,10.50
2019-02-10T06:37:53.036Z,10.50
2019-02-10T06:38:54.057Z,10.50
2019-02-10T06:39:55.140Z,10.50
2019-02-10T06:40:56.231Z,10.60
2019-02-10T06:41:57.376Z,10.60
2019-02-10T06:42:58.380Z,10.60
2019-02-10T06:43:59.393Z,10.60
2019-02-10T06:45:00.405Z,10.60
2019-02-10T06:46:01.409Z,10.50
2019-02-10T06:47:02.416Z,10.50
2019-02-10T06:48:03.436Z,10.50
2019-02-10T06:49:04.455Z,10.50
2019-02-10T06:50:06.463Z,10.50
2019-02-10T06:51:07.476Z,10.50
2019-02-10T06:52:08.671Z,10.50
2019-02-10T06:53:09.686Z,10.50
2019-02-10T06:54:10.701Z,10.50
2019-02-10T06:55:11.711Z,10.50
2019-02-10T06:56:12.722Z,10.50
2019-02-10T06:57:13.727Z,10.50
2019-02-10T06:58:14.736Z,10.50
2019-02-10T06:59:17.659Z,10.50
2019-02-10T07:00:20.574Z,10.50
2019-02-10T07:01:23.492Z,10.50
2019-02-10T07:02:32.151Z,10.50
2019-02-10T07:03:40.175Z,10.60
2019-02-10T07:04:41.212Z,10.60
2019-02-10T07:05:42.224Z,10.60
2019-02-10T07:06:43.262Z,10.60
2019-02-10T07:07:44.264Z,10.60
2019-02-10T07:08:45.329Z,10.70
2019-02-10T07:09:46.415Z,10.70
2019-02-10T07:10:47.444Z,10.70
2019-02-10T07:11:48.456Z,10.80
2019-02-10T07:12:49.571Z,10.80
2019-02-10T07:13:52.889Z,10.80
2019-02-10T07:14:57.717Z,10.90
2019-02-10T07:16:28.592Z,10.90
2019-02-10T07:17:33.200Z,11.00
2019-02-10T07:19:11.956Z,11.00
2019-02-10T07:20:36.692Z,11.00
2019-02-10T07:21:37.741Z,11.10
2019-02-10T07:22:42.568Z,11.10
2019-02-10T07:24:02.504Z,11.10
2019-02-10T07:25:16.641Z,11.10
2019-02-10T07:26:17.990Z,11.00
2019-02-10T07:27:22.509Z,11.00
2019-02-10T07:28:27.325Z,11.00
2019-02-10T07:29:57.459Z,11.00
2019-02-10T07:30:59.567Z,11.00
2019-02-10T07:32:02.083Z,11.00
2019-02-10T07:33:05.295Z,11.00
2019-02-10T07:34:25.194Z,11.00
2019-02-10T07:35:53.104Z,11.00
2019-02-10T07:37:29.581Z,11.00
2019-02-10T07:38:52.667Z,10.90
2019-02-10T07:40:22.007Z,10.90
2019-02-10T07:42:01.640Z,10.80
2019-02-10T07:43:12.421Z,10.80
2019-02-10T07:44:41.304Z,10.80
2019-02-10T07:45:57.936Z,10.80
2019-02-10T07:47:17.324Z,10.80
2019-02-10T07:48:25.164Z,10.80
2019-02-10T07:49:32.751Z,10.80
2019-02-10T07:50:54.648Z,10.80
2019-02-10T07:52:08.104Z,10.80
2019-02-10T07:53:25.227Z,10.70
2019-02-10T07:54:32.924Z,10.80
2019-02-10T07:55:55.652Z,10.80
2019-02-10T07:57:15.765Z,10.80
2019-02-10T07:58:29.843Z,10.80
2019-02-10T07:59:34.672Z,10.80
2019-02-10T08:00:42.017Z,10.80
2019-02-10T08:01:49.948Z,10.80
2019-02-10T08:03:00.999Z,10.80
2019-02-10T08:04:12.068Z,10.80
2019-02-10T08:05:38.344Z,10.80
2019-02-10T08:07:03.378Z,10.90
2019-02-10T08:08:26.705Z,10.90
2019-02-10T08:09:37.644Z,10.90
2019-02-10T08:11:11.375Z,10.90
2019-02-10T08:12:34.757Z,10.90
2019-02-10T08:13:45.155Z,10.90
2019-02-10T08:14:49.976Z,10.90
2019-02-10T08:16:00.776Z,10.90
2019-02-10T08:17:17.365Z,10.90
2019-02-10T08:18:33.939Z,11.00
2019-02-10T08:19:59.298Z,11.00
2019-02-10T08:21:15.988Z,11.00
2019-02-10T08:22:29.978Z,10.90
2019-02-10T08:23:37.543Z,11.00
2019-02-10T08:24:59.067Z,11.00
2019-02-10T08:26:10.098Z,11.00
2019-02-10T08:27:21.032Z,11.00
2019-02-10T08:28:28.960Z,11.00
2019-02-10T08:29:51.975Z,11.00
2019-02-10T08:31:02.784Z,11.10
2019-02-10T08:32:15.163Z,11.10
2019-02-10T08:33:26.011Z,11.10
2019-02-10T08:34:36.870Z,11.20
2019-02-10T08:35:59.730Z,11.20
2019-02-10T08:37:13.552Z,11.20
2019-02-10T08:38:27.495Z,11.20
2019-02-10T08:39:38.076Z,11.20
2019-02-10T08:41:03.288Z,11.30
2019-02-10T08:42:25.823Z,11.30
2019-02-10T08:43:39.452Z,11.30
2019-02-10T08:44:56.275Z,11.40
2019-02-10T08:46:06.533Z,11.40
2019-02-10T08:47:16.982Z,11.50
2019-02-10T08:48:38.764Z,11.50
2019-02-10T08:49:43.618Z,11.50
2019-02-10T08:50:59.983Z,11.60
2019-02-10T08:52:23.063Z,11.60
2019-02-10T08:53:24.173Z,11.60
2019-02-10T08:54:25.695Z,11.60
2019-02-10T08:55:26.696Z,11.60
2019-02-10T08:56:27.724Z,11.60
2019-02-10T08:57:28.729Z,11.70
2019-02-10T08:58:29.744Z,11.70
2019-02-10T08:59:30.856Z,11.70
2019-02-10T09:00:31.872Z,11.70
2019-02-10T09:01:32.896Z,11.80
2019-02-10T09:02:33.991Z,11.80
2019-02-10T09:03:35.031Z,11.80
2019-02-10T09:04:36.048Z,11.80
2019-02-10T09:05:37.056Z,11.80
2019-02-10T09:06:38.080Z,11.80
2019-02-10T09:07:39.100Z,11.90
2019-02-10T09:08:40.107Z,11.90
2019-02-10T09:09:41.117Z,11.90
2019-02-10T09:10:42.128Z,11.90
2019-02-10T09:11:43.145Z,11.90
2019-02-10T09:12:44.172Z,12.00
2019-02-10T09:13:45.197Z,12.00
2019-02-10T09:14:46.319Z,12.00
2019-02-10T09:15:47.335Z,12.10
2019-02-10T09:16:48.383Z,12.10
2019-02-10T09:17:49.403Z,12.10
2019-02-10T09:18:50.444Z,12.10
2019-02-10T09:19:51.456Z,12.10
2019-02-10T09:20:52.464Z,12.20
2019-02-10T09:21:53.474Z,12.20
2019-02-10T09:22:54.488Z,12.20
2019-02-10T09:23:55.496Z,12.30
2019-02-10T09:24:56.504Z,12.30
2019-02-10T09:25:57.540Z,12.30
2019-02-10T09:26:58.546Z,12.30
2019-02-10T09:27:59.564Z,12.30
2019-02-10T09:29:00.572Z,12.30
2019-02-10T09:30:02.796Z,12.30
2019-02-10T09:31:03.799Z,12.30
2019-02-10T09:32:04.808Z,12.40
2019-02-10T09:33:05.855Z,12.40
2019-02-10T09:34:06.868Z,12.40
2019-02-10T09:35:07.980Z,12.40
2019-02-10T09:36:09.005Z,12.40
2019-02-10T09:37:10.024Z,12.40
2019-02-10T09:38:11.044Z,12.40
2019-02-10T09:39:12.085Z,12.40
2019-02-10T09:40:13.095Z,12.40
2019-02-10T09:41:14.116Z,12.40
2019-02-10T09:42:15.136Z,12.40
2019-02-10T09:43:16.150Z,12.40
2019-02-10T09:44:17.164Z,12.40
2019-02-10T09:45:18.197Z,12.40
2019-02-10T09:46:19.299Z,12.40
2019-02-10T09:47:20.308Z,12.50
2019-02-10T09:48:21.315Z,12.50
2019-02-10T09:49:22.369Z,12.50
2019-02-10T09:50:23.454Z,12.60
2019-02-10T09:51:24.468Z,12.70
2019-02-10T09:52:25.492Z,12.70
2019-02-10T09:58:54.271Z,12.90
2019-02-10T09:59:55.378Z,12.80
2019-02-10T10:00:56.471Z,12.70
2019-02-10T10:01:57.539Z,12.70
2019-02-10T10:02:58.636Z,12.60
2019-02-10T10:03:59.656Z,12.70
2019-02-10T10:05:00.921Z,12.70
2019-02-10T10:06:01.938Z,12.70
2019-02-10T10:07:02.939Z,12.70
2019-02-10T10:08:03.987Z,12.80
2019-02-10T10:09:05.474Z,12.80
2019-02-10T10:10:08.880Z,12.90
2019-02-10T10:11:09.964Z,13.00
2019-02-10T10:12:11.028Z,13.00
2019-02-10T10:13:12.114Z,13.10
2019-02-10T10:14:13.187Z,13.10
2019-02-10T10:15:15.296Z,13.20
2019-02-10T10:16:16.306Z,13.30
2019-02-10T10:17:17.361Z,13.30
2019-02-10T10:18:18.372Z,13.40
2019-02-10T10:19:19.435Z,13.40
2019-02-10T10:20:20.495Z,13.50
2019-02-10T10:21:21.603Z,13.50
2019-02-10T10:22:22.595Z,13.50
2019-02-10T10:23:23.640Z,13.60
2019-02-10T10:24:24.657Z,13.60
2019-02-10T10:25:25.656Z,13.70
2019-02-10T10:26:26.676Z,13.70
2019-02-10T10:27:27.703Z,13.70
2019-02-10T10:28:28.740Z,13.70
2019-02-10T10:29:29.752Z,13.70
2019-02-10T10:30:30.864Z,13.80
2019-02-10T10:31:31.881Z,13.80
2019-02-10T10:32:32.896Z,13.80
2019-02-10T10:33:33.932Z,13.80
2019-02-10T10:34:34.942Z,13.90
2019-02-10T10:35:35.979Z,13.90
2019-02-10T10:36:36.979Z,13.90
2019-02-10T10:37:38.015Z,13.90
2019-02-10T10:38:39.124Z,14.00
2019-02-10T10:39:40.141Z,14.00
2019-02-10T10:40:41.157Z,14.00
2019-02-10T10:41:42.169Z,14.00
2019-02-10T10:42:43.200Z,14.00
2019-02-10T10:43:44.223Z,14.00
2019-02-10T10:44:45.236Z,14.10
2019-02-10T10:45:46.259Z,14.20
2019-02-10T10:46:47.296Z,14.20
2019-02-10T10:47:48.308Z,14.30
2019-02-10T10:48:49.346Z,14.30
2019-02-10T10:49:50.363Z,14.30
2019-02-10T10:50:51.367Z,14.40
2019-02-10T10:51:52.384Z,14.50
2019-02-10T10:52:53.509Z,14.60
2019-02-10T10:53:54.844Z,14.60
2019-02-10T10:54:55.844Z,14.70
2019-02-10T10:55:56.872Z,14.80
2019-02-10T10:56:57.872Z,14.90
2019-02-10T10:57:59.123Z,14.90
2019-02-10T10:59:00.148Z,15.00
2019-02-10T11:00:02.755Z,15.00
2019-02-10T11:01:03.895Z,15.00
2019-02-10T11:02:04.908Z,15.00
2019-02-10T11:03:05.932Z,15.10
2019-02-10T11:04:06.965Z,15.10
2019-02-10T11:05:08.280Z,15.20
2019-02-10T11:06:09.304Z,15.20
2019-02-10T11:07:10.316Z,15.20
2019-02-10T11:08:11.338Z,15.20
2019-02-10T11:09:12.364Z,15.20
2019-02-10T11:10:13.381Z,15.20
2019-02-10T11:11:14.389Z,15.20
2019-02-10T11:12:15.441Z,15.20
2019-02-10T11:13:16.464Z,15.20
2019-02-10T11:14:17.484Z,15.20
2019-02-10T11:15:18.525Z,15.10
2019-02-10T11:16:19.523Z,15.10
2019-02-10T11:17:20.540Z,15.10
2019-02-10T11:18:21.556Z,15.10
2019-02-10T11:19:22.588Z,15.10
2019-02-10T11:20:23.604Z,15.10
2019-02-10T11:21:24.617Z,15.10
2019-02-10T11:22:25.631Z,15.10
2019-02-10T11:23:32.144Z,15.10
2019-02-10T11:24:33.270Z,15.10
2019-02-10T11:25:38.268Z,15.10
2019-02-10T11:26:45.619Z,15.10
2019-02-10T11:27:49.568Z,15.20
2019-02-10T11:28:50.748Z,15.10
2019-02-10T11:29:54.117Z,15.20
2019-02-10T11:30:55.379Z,15.20
2019-02-10T11:31:57.007Z,15.30
2019-02-10T11:32:58.129Z,15.20
2019-02-10T11:33:59.213Z,15.30
2019-02-10T11:35:00.231Z,15.20
2019-02-10T11:36:01.262Z,15.30
2019-02-10T11:37:02.268Z,15.30
2019-02-10T11:38:03.319Z,15.30
2019-02-10T11:39:04.879Z,15.30
2019-02-10T11:40:10.672Z,15.30
2019-02-10T11:41:11.711Z,15.30
2019-02-10T11:42:12.745Z,15.40
2019-02-10T11:43:13.762Z,15.40
2019-02-10T11:44:15.098Z,15.50
2019-02-10T11:45:16.127Z,15.60
2019-02-10T11:46:17.143Z,15.60
2019-02-10T11:47:18.160Z,15.70
2019-02-10T11:48:19.180Z,15.70
2019-02-10T11:49:20.193Z,15.70
2019-02-10T11:50:21.230Z,15.60
2019-02-10T11:51:22.247Z,15.60
2019-02-10T11:52:23.277Z,15.60
2019-02-10T11:53:24.292Z,15.60
2019-02-10T11:54:25.300Z,15.60
2019-02-10T11:55:26.338Z,15.70
2019-02-10T11:56:27.340Z,15.70
2019-02-10T11:57:28.381Z,15.70
2019-02-10T11:58:36.764Z,15.80
2019-02-10T11:59:37.792Z,15.80
2019-02-10T12:00:38.803Z,15.90
2019-02-10T12:01:39.842Z,15.90
2019-02-10T12:02:40.847Z,15.90
2019-02-10T12:03:41.864Z,16.00
2019-02-10T12:04:42.881Z,16.00
2019-02-10T12:05:43.904Z,16.10
2019-02-10T12:06:44.932Z,16.10
2019-02-10T12:07:45.944Z,16.10
2019-02-10T12:08:46.953Z,16.10
2019-02-10T12:09:51.715Z,16.10
2019-02-10T12:10:50.933Z,16.10
2019-02-10T12:11:51.977Z,16.10
2019-02-10T12:12:52.980Z,16.10
2019-02-10T12:13:53.996Z,16.10
2019-02-10T12:14:55.008Z,16.00
2019-02-10T12:15:56.034Z,16.00
2019-02-10T12:16:57.044Z,15.90
2019-02-10T12:17:58.071Z,15.90
2019-02-10T12:18:59.084Z,15.90
2019-02-10T12:20:00.278Z,15.90
2019-02-10T12:21:01.376Z,15.90
2019-02-10T12:22:02.383Z,15.90
2019-02-10T12:23:03.393Z,16.00
2019-02-10T12:24:04.403Z,16.00
2019-02-10T12:25:07.115Z,16.00
2019-02-10T12:26:08.136Z,16.00
2019-02-10T12:27:09.148Z,16.00
2019-02-10T12:28:10.165Z,15.90
2019-02-10T12:29:11.187Z,15.90
2019-02-10T12:30:13.510Z,15.90
2019-02-10T12:31:14.528Z,15.80
2019-02-10T12:32:15.551Z,15.90
2019-02-10T12:33:16.801Z,15.90
2019-02-10T12:34:17.805Z,15.80
2019-02-10T12:35:18.853Z,15.80
2019-02-10T12:36:19.881Z,15.90
2019-02-10T12:37:20.887Z,15.90
2019-02-10T12:38:21.895Z,15.80
2019-02-10T12:39:22.907Z,15.80
2019-02-10T12:40:23.920Z,15.80
2019-02-10T12:41:24.940Z,15.80
2019-02-10T12:42:25.952Z,15.70
2019-02-10T12:43:26.992Z,15.70
2019-02-10T12:44:28.004Z,15.70
2019-02-10T12:45:29.024Z,15.70
2019-02-10T12:46:30.044Z,15.70
2019-02-10T12:47:31.082Z,15.60
2019-02-10T12:48:32.096Z,15.60
2019-02-10T12:49:33.115Z,15.60
2019-02-10T12:50:34.129Z,15.60
2019-02-10T12:51:35.147Z,15.50
2019-02-10T12:52:36.160Z,15.40
2019-02-10T12:53:37.180Z,15.40
2019-02-10T12:54:38.191Z,15.40
2019-02-10T12:55:39.208Z,15.40
2019-02-10T12:56:40.227Z,15.30
2019-02-10T12:57:41.232Z,15.30
2019-02-10T12:58:42.244Z,15.30
2019-02-10T12:59:43.247Z,15.30
2019-02-10T13:00:44.280Z,15.20
2019-02-10T13:01:45.394Z,15.10
2019-02-10T13:02:46.509Z,15.10
2019-02-10T13:03:47.680Z,15.00
2019-02-10T13:04:48.755Z,15.00
2019-02-10T13:05:49.767Z,14.80
2019-02-10T13:06:50.789Z,14.70
2019-02-10T13:07:51.797Z,14.70
2019-02-10T13:08:52.807Z,14.50
2019-02-10T13:09:53.837Z,14.40
2019-02-10T13:10:54.892Z,14.30
2019-02-10T13:11:58.510Z,14.20
2019-02-10T13:12:58.815Z,14.10
2019-02-10T13:13:59.829Z,14.00
2019-02-10T13:15:00.883Z,13.90
2019-02-10T13:16:01.908Z,13.90
2019-02-10T13:17:02.916Z,13.70
2019-02-10T13:18:03.961Z,13.60
2019-02-10T13:19:05.080Z,13.60
2019-02-10T13:20:11.349Z,13.60
2019-02-10T13:21:12.387Z,13.50
2019-02-10T13:22:13.392Z,13.50
2019-02-10T13:23:14.425Z,13.40
2019-02-10T13:24:15.432Z,13.50
2019-02-10T13:25:16.539Z,13.40
2019-02-10T13:26:17.555Z,13.40
2019-02-10T13:27:18.602Z,13.30
2019-02-10T13:28:19.608Z,13.30
2019-02-10T13:29:20.635Z,13.10
2019-02-10T13:30:21.643Z,13.00
2019-02-10T13:31:22.660Z,12.90
2019-02-10T13:32:23.677Z,12.70
2019-02-10T13:33:24.692Z,12.70
2019-02-10T13:34:25.807Z,12.70
2019-02-10T13:35:26.931Z,12.60